sensor_id;sensor_type;location;lat;lon;timestamp;P1;durP1;ratioP1;P2;durP2;ratioP2
21959;SDS011;11144;43.030;25.108;2022-09-01T00:00:40;7.80;;;3.75;;
21959;SDS011;11144;43.030;25.108;2022-09-01T00:02:19;9.52;;;4.47;;
21959;SDS011;11144;43.030;25.108;2022-09-01T00:03:57;11.93;;;5.00;;
21959;SDS011;11144;43.030;25.108;2022-09-01T00:05:33;7.65;;;4.78;;
21959;SDS011;11144;43.030;25.108;2022-09-01T00:07:08;5.82;;;4.03;;
21959;SDS011;11144;43.030;25.108;2022-09-01T00:08:43;9.23;;;5.68;;
21959;SDS011;11144;43.030;25.108;2022-09-01T00:10:16;11.60;;;5.93;;
21959;SDS011;11144;43.030;25.108;2022-09-01T00:11:50;7.60;;;4.43;;
21959;SDS011;11144;43.030;25.108;2022-09-01T00:13:25;8.13;;;4.95;;
21959;SDS011;11144;43.030;25.108;2022-09-01T00:14:58;8.48;;;5.45;;
21959;SDS011;11144;43.030;25.108;2022-09-01T00:16:31;9.35;;;5.85;;
21959;SDS011;11144;43.030;25.108;2022-09-01T00:18:05;8.65;;;5.45;;
21959;SDS011;11144;43.030;25.108;2022-09-01T00:19:38;9.02;;;5.57;;
21959;SDS011;11144;43.030;25.108;2022-09-01T00:21:12;7.18;;;4.90;;
21959;SDS011;11144;43.030;25.108;2022-09-01T00:22:45;8.65;;;5.15;;
21959;SDS011;11144;43.030;25.108;2022-09-01T00:24:20;7.25;;;4.72;;
21959;SDS011;11144;43.030;25.108;2022-09-01T00:25:53;9.10;;;4.80;;
21959;SDS011;11144;43.030;25.108;2022-09-01T00:27:27;9.38;;;5.00;;
21959;SDS011;11144;43.030;25.108;2022-09-01T00:29:01;9.98;;;5.60;;
21959;SDS011;11144;43.030;25.108;2022-09-01T00:30:35;7.97;;;5.97;;
21959;SDS011;11144;43.030;25.108;2022-09-01T00:32:08;9.20;;;4.97;;
21959;SDS011;11144;43.030;25.108;2022-09-01T00:33:42;10.90;;;5.20;;
21959;SDS011;11144;43.030;25.108;2022-09-01T00:35:15;7.82;;;4.68;;
21959;SDS011;11144;43.030;25.108;2022-09-01T00:36:50;9.02;;;4.93;;
21959;SDS011;11144;43.030;25.108;2022-09-01T00:38:25;8.90;;;4.60;;
21959;SDS011;11144;43.030;25.108;2022-09-01T00:39:59;9.20;;;4.63;;
21959;SDS011;11144;43.030;25.108;2022-09-01T00:41:33;7.57;;;4.50;;
21959;SDS011;11144;43.030;25.108;2022-09-01T00:43:10;7.47;;;4.32;;
21959;SDS011;11144;43.030;25.108;2022-09-01T00:44:45;8.30;;;4.65;;
21959;SDS011;11144;43.030;25.108;2022-09-01T00:46:20;6.00;;;4.50;;
21959;SDS011;11144;43.030;25.108;2022-09-01T00:47:59;7.43;;;4.75;;
21959;SDS011;11144;43.030;25.108;2022-09-01T00:49:38;7.80;;;4.90;;
21959;SDS011;11144;43.030;25.108;2022-09-01T00:51:13;8.38;;;4.88;;
21959;SDS011;11144;43.030;25.108;2022-09-01T00:52:48;5.85;;;4.47;;
21959;SDS011;11144;43.030;25.108;2022-09-01T00:54:26;8.43;;;5.15;;
21959;SDS011;11144;43.030;25.108;2022-09-01T00:56:03;9.35;;;5.65;;
21959;SDS011;11144;43.030;25.108;2022-09-01T00:57:37;8.95;;;5.32;;
21959;SDS011;11144;43.030;25.108;2022-09-01T00:59:12;8.05;;;5.88;;
21959;SDS011;11144;43.030;25.108;2022-09-01T01:00:47;7.78;;;5.07;;
21959;SDS011;11144;43.030;25.108;2022-09-01T01:02:23;8.10;;;5.25;;
21959;SDS011;11144;43.030;25.108;2022-09-01T01:03:57;9.20;;;5.50;;
21959;SDS011;11144;43.030;25.108;2022-09-01T01:05:33;9.02;;;5.28;;
21959;SDS011;11144;43.030;25.108;2022-09-01T01:07:10;13.95;;;6.22;;
21959;SDS011;11144;43.030;25.108;2022-09-01T01:08:45;8.32;;;4.97;;
21959;SDS011;11144;43.030;25.108;2022-09-01T01:10:31;9.88;;;5.40;;
21959;SDS011;11144;43.030;25.108;2022-09-01T01:12:08;10.00;;;5.93;;
21959;SDS011;11144;43.030;25.108;2022-09-01T01:13:49;9.57;;;5.15;;
21959;SDS011;11144;43.030;25.108;2022-09-01T01:15:23;9.02;;;5.60;;
21959;SDS011;11144;43.030;25.108;2022-09-01T01:16:57;6.95;;;4.45;;
21959;SDS011;11144;43.030;25.108;2022-09-01T01:18:30;6.60;;;4.90;;
21959;SDS011;11144;43.030;25.108;2022-09-01T01:20:04;7.70;;;5.18;;
21959;SDS011;11144;43.030;25.108;2022-09-01T01:21:58;6.57;;;4.40;;
21959;SDS011;11144;43.030;25.108;2022-09-01T01:23:50;7.22;;;4.57;;
21959;SDS011;11144;43.030;25.108;2022-09-01T01:25:31;10.45;;;5.10;;
21959;SDS011;11144;43.030;25.108;2022-09-01T01:27:05;7.35;;;4.47;;
21959;SDS011;11144;43.030;25.108;2022-09-01T01:28:39;7.82;;;4.43;;
21959;SDS011;11144;43.030;25.108;2022-09-01T01:30:15;12.40;;;4.65;;
21959;SDS011;11144;43.030;25.108;2022-09-01T01:31:51;7.80;;;4.97;;
21959;SDS011;11144;43.030;25.108;2022-09-01T01:33:26;10.45;;;5.07;;
21959;SDS011;11144;43.030;25.108;2022-09-01T01:35:01;6.80;;;4.47;;
21959;SDS011;11144;43.030;25.108;2022-09-01T01:36:37;6.47;;;4.43;;
21959;SDS011;11144;43.030;25.108;2022-09-01T01:38:17;5.07;;;3.83;;
21959;SDS011;11144;43.030;25.108;2022-09-01T01:39:54;4.68;;;3.65;;
21959;SDS011;11144;43.030;25.108;2022-09-01T01:41:28;6.38;;;4.18;;
21959;SDS011;11144;43.030;25.108;2022-09-01T01:43:04;6.20;;;3.85;;
21959;SDS011;11144;43.030;25.108;2022-09-01T01:44:38;5.85;;;3.90;;
21959;SDS011;11144;43.030;25.108;2022-09-01T01:46:13;6.93;;;4.20;;
21959;SDS011;11144;43.030;25.108;2022-09-01T01:47:51;9.73;;;4.93;;
21959;SDS011;11144;43.030;25.108;2022-09-01T01:49:27;6.80;;;4.30;;
21959;SDS011;11144;43.030;25.108;2022-09-01T01:51:02;9.90;;;5.18;;
21959;SDS011;11144;43.030;25.108;2022-09-01T01:52:36;7.40;;;4.43;;
21959;SDS011;11144;43.030;25.108;2022-09-01T01:54:15;6.80;;;4.40;;
21959;SDS011;11144;43.030;25.108;2022-09-01T01:55:51;12.82;;;4.85;;
21959;SDS011;11144;43.030;25.108;2022-09-01T01:57:26;6.95;;;3.97;;
21959;SDS011;11144;43.030;25.108;2022-09-01T01:59:02;8.07;;;3.97;;
21959;SDS011;11144;43.030;25.108;2022-09-01T02:00:38;7.53;;;4.38;;
21959;SDS011;11144;43.030;25.108;2022-09-01T02:02:15;5.40;;;3.83;;
21959;SDS011;11144;43.030;25.108;2022-09-01T02:03:49;10.10;;;3.17;;
21959;SDS011;11144;43.030;25.108;2022-09-01T02:05:24;5.88;;;3.60;;
21959;SDS011;11144;43.030;25.108;2022-09-01T02:07:00;8.00;;;4.88;;
21959;SDS011;11144;43.030;25.108;2022-09-01T02:08:34;5.32;;;3.65;;
21959;SDS011;11144;43.030;25.108;2022-09-01T02:10:09;5.10;;;3.67;;
21959;SDS011;11144;43.030;25.108;2022-09-01T02:11:42;8.10;;;4.07;;
21959;SDS011;11144;43.030;25.108;2022-09-01T02:13:19;4.78;;;3.58;;
21959;SDS011;11144;43.030;25.108;2022-09-01T02:15:02;6.93;;;4.38;;
21959;SDS011;11144;43.030;25.108;2022-09-01T02:16:38;7.18;;;4.40;;
21959;SDS011;11144;43.030;25.108;2022-09-01T02:18:12;6.88;;;4.30;;
21959;SDS011;11144;43.030;25.108;2022-09-01T02:19:48;8.27;;;5.10;;
21959;SDS011;11144;43.030;25.108;2022-09-01T02:21:27;6.85;;;4.75;;
21959;SDS011;11144;43.030;25.108;2022-09-01T02:23:01;7.03;;;4.70;;
21959;SDS011;11144;43.030;25.108;2022-09-01T02:24:40;14.35;;;4.97;;
21959;SDS011;11144;43.030;25.108;2022-09-01T02:26:19;8.95;;;4.68;;
21959;SDS011;11144;43.030;25.108;2022-09-01T02:27:56;9.43;;;5.10;;
21959;SDS011;11144;43.030;25.108;2022-09-01T02:29:34;5.88;;;3.92;;
21959;SDS011;11144;43.030;25.108;2022-09-01T02:31:14;7.13;;;4.32;;
21959;SDS011;11144;43.030;25.108;2022-09-01T02:32:47;8.23;;;4.50;;
21959;SDS011;11144;43.030;25.108;2022-09-01T02:34:21;9.20;;;4.35;;
21959;SDS011;11144;43.030;25.108;2022-09-01T02:35:58;5.93;;;4.50;;
21959;SDS011;11144;43.030;25.108;2022-09-01T02:37:32;6.20;;;4.72;;
21959;SDS011;11144;43.030;25.108;2022-09-01T02:39:05;10.93;;;5.03;;
21959;SDS011;11144;43.030;25.108;2022-09-01T02:40:39;6.72;;;4.20;;
21959;SDS011;11144;43.030;25.108;2022-09-01T02:42:16;8.45;;;4.55;;
21959;SDS011;11144;43.030;25.108;2022-09-01T02:43:52;6.50;;;4.38;;
21959;SDS011;11144;43.030;25.108;2022-09-01T02:45:26;6.75;;;4.25;;
21959;SDS011;11144;43.030;25.108;2022-09-01T02:47:00;6.95;;;4.95;;
21959;SDS011;11144;43.030;25.108;2022-09-01T02:48:38;24.73;;;14.55;;
21959;SDS011;11144;43.030;25.108;2022-09-01T02:50:17;36.13;;;21.85;;
21959;SDS011;11144;43.030;25.108;2022-09-01T02:51:53;33.05;;;20.02;;
21959;SDS011;11144;43.030;25.108;2022-09-01T02:53:33;11.27;;;7.25;;
21959;SDS011;11144;43.030;25.108;2022-09-01T02:55:08;8.02;;;5.07;;
21959;SDS011;11144;43.030;25.108;2022-09-01T02:56:43;9.35;;;5.25;;
21959;SDS011;11144;43.030;25.108;2022-09-01T02:58:16;8.88;;;5.05;;
21959;SDS011;11144;43.030;25.108;2022-09-01T02:59:56;8.90;;;5.07;;
21959;SDS011;11144;43.030;25.108;2022-09-01T03:01:31;7.53;;;4.93;;
21959;SDS011;11144;43.030;25.108;2022-09-01T03:03:05;8.38;;;5.18;;
21959;SDS011;11144;43.030;25.108;2022-09-01T03:04:39;13.95;;;6.15;;
21959;SDS011;11144;43.030;25.108;2022-09-01T03:06:13;12.68;;;7.45;;
21959;SDS011;11144;43.030;25.108;2022-09-01T03:07:52;8.30;;;5.55;;
21959;SDS011;11144;43.030;25.108;2022-09-01T03:09:30;7.63;;;4.80;;
21959;SDS011;11144;43.030;25.108;2022-09-01T03:11:06;10.85;;;5.97;;
21959;SDS011;11144;43.030;25.108;2022-09-01T03:12:44;8.65;;;5.40;;
21959;SDS011;11144;43.030;25.108;2022-09-01T03:14:19;9.15;;;4.60;;
21959;SDS011;11144;43.030;25.108;2022-09-01T03:15:54;8.07;;;5.30;;
21959;SDS011;11144;43.030;25.108;2022-09-01T03:17:29;7.88;;;5.47;;
21959;SDS011;11144;43.030;25.108;2022-09-01T03:19:02;10.13;;;5.93;;
21959;SDS011;11144;43.030;25.108;2022-09-01T03:20:40;7.90;;;4.70;;
21959;SDS011;11144;43.030;25.108;2022-09-01T03:22:16;6.38;;;4.32;;
21959;SDS011;11144;43.030;25.108;2022-09-01T03:23:50;7.88;;;5.05;;
21959;SDS011;11144;43.030;25.108;2022-09-01T03:25:24;8.25;;;5.18;;
21959;SDS011;11144;43.030;25.108;2022-09-01T03:26:59;8.73;;;5.07;;
21959;SDS011;11144;43.030;25.108;2022-09-01T03:28:32;9.30;;;5.28;;
21959;SDS011;11144;43.030;25.108;2022-09-01T03:30:05;6.90;;;4.45;;
21959;SDS011;11144;43.030;25.108;2022-09-01T03:31:39;9.43;;;6.00;;
21959;SDS011;11144;43.030;25.108;2022-09-01T03:33:15;8.50;;;4.95;;
21959;SDS011;11144;43.030;25.108;2022-09-01T03:34:49;7.82;;;5.05;;
21959;SDS011;11144;43.030;25.108;2022-09-01T03:36:22;9.82;;;5.25;;
21959;SDS011;11144;43.030;25.108;2022-09-01T03:37:56;10.20;;;6.00;;
21959;SDS011;11144;43.030;25.108;2022-09-01T03:39:29;7.47;;;5.18;;
21959;SDS011;11144;43.030;25.108;2022-09-01T03:41:03;12.73;;;6.15;;
21959;SDS011;11144;43.030;25.108;2022-09-01T03:42:38;9.25;;;5.45;;
21959;SDS011;11144;43.030;25.108;2022-09-01T03:44:12;7.72;;;5.15;;
21959;SDS011;11144;43.030;25.108;2022-09-01T03:45:48;7.38;;;4.57;;
21959;SDS011;11144;43.030;25.108;2022-09-01T03:47:21;7.05;;;4.82;;
21959;SDS011;11144;43.030;25.108;2022-09-01T03:48:57;8.38;;;5.00;;
21959;SDS011;11144;43.030;25.108;2022-09-01T03:50:34;10.30;;;5.70;;
21959;SDS011;11144;43.030;25.108;2022-09-01T03:52:12;9.98;;;6.05;;
21959;SDS011;11144;43.030;25.108;2022-09-01T03:53:45;9.95;;;5.47;;
21959;SDS011;11144;43.030;25.108;2022-09-01T03:55:19;7.85;;;5.32;;
21959;SDS011;11144;43.030;25.108;2022-09-01T03:56:54;9.63;;;5.80;;
21959;SDS011;11144;43.030;25.108;2022-09-01T03:58:31;7.63;;;5.72;;
21959;SDS011;11144;43.030;25.108;2022-09-01T04:00:05;7.90;;;5.30;;
21959;SDS011;11144;43.030;25.108;2022-09-01T04:01:44;7.65;;;4.90;;
21959;SDS011;11144;43.030;25.108;2022-09-01T04:03:19;9.43;;;6.07;;
21959;SDS011;11144;43.030;25.108;2022-09-01T04:05:01;7.88;;;5.10;;
21959;SDS011;11144;43.030;25.108;2022-09-01T04:06:38;11.77;;;6.18;;
21959;SDS011;11144;43.030;25.108;2022-09-01T04:08:12;8.70;;;6.18;;
21959;SDS011;11144;43.030;25.108;2022-09-01T04:09:45;8.73;;;5.63;;
21959;SDS011;11144;43.030;25.108;2022-09-01T04:11:19;8.60;;;5.32;;
21959;SDS011;11144;43.030;25.108;2022-09-01T04:12:56;9.02;;;5.90;;
21959;SDS011;11144;43.030;25.108;2022-09-01T04:14:29;11.02;;;6.03;;
21959;SDS011;11144;43.030;25.108;2022-09-01T04:16:03;9.10;;;5.43;;
21959;SDS011;11144;43.030;25.108;2022-09-01T04:17:41;8.43;;;5.75;;
21959;SDS011;11144;43.030;25.108;2022-09-01T04:19:43;12.07;;;6.75;;
21959;SDS011;11144;43.030;25.108;2022-09-01T04:21:19;8.18;;;5.18;;
21959;SDS011;11144;43.030;25.108;2022-09-01T04:22:53;10.70;;;5.60;;
21959;SDS011;11144;43.030;25.108;2022-09-01T04:24:29;8.95;;;5.57;;
21959;SDS011;11144;43.030;25.108;2022-09-01T04:26:05;11.07;;;5.80;;
21959;SDS011;11144;43.030;25.108;2022-09-01T04:27:41;10.98;;;5.88;;
21959;SDS011;11144;43.030;25.108;2022-09-01T04:29:16;9.65;;;5.85;;
21959;SDS011;11144;43.030;25.108;2022-09-01T04:30:58;9.73;;;5.90;;
21959;SDS011;11144;43.030;25.108;2022-09-01T04:32:38;14.85;;;7.05;;
21959;SDS011;11144;43.030;25.108;2022-09-01T04:34:11;12.20;;;6.63;;
21959;SDS011;11144;43.030;25.108;2022-09-01T04:35:46;18.55;;;6.88;;
21959;SDS011;11144;43.030;25.108;2022-09-01T04:37:21;16.00;;;7.22;;
21959;SDS011;11144;43.030;25.108;2022-09-01T04:39:02;15.30;;;6.57;;
21959;SDS011;11144;43.030;25.108;2022-09-01T04:40:42;15.00;;;7.35;;
21959;SDS011;11144;43.030;25.108;2022-09-01T04:42:16;15.52;;;7.68;;
21959;SDS011;11144;43.030;25.108;2022-09-01T04:43:50;18.27;;;7.88;;
21959;SDS011;11144;43.030;25.108;2022-09-01T04:45:27;16.52;;;8.18;;
21959;SDS011;11144;43.030;25.108;2022-09-01T04:47:02;16.80;;;7.85;;
21959;SDS011;11144;43.030;25.108;2022-09-01T04:48:36;17.23;;;8.65;;
21959;SDS011;11144;43.030;25.108;2022-09-01T04:50:17;20.08;;;8.23;;
21959;SDS011;11144;43.030;25.108;2022-09-01T04:52:11;15.52;;;8.40;;
21959;SDS011;11144;43.030;25.108;2022-09-01T04:53:46;13.02;;;7.40;;
21959;SDS011;11144;43.030;25.108;2022-09-01T04:55:20;12.73;;;7.88;;
21959;SDS011;11144;43.030;25.108;2022-09-01T04:56:59;17.15;;;8.10;;
21959;SDS011;11144;43.030;25.108;2022-09-01T04:58:33;16.45;;;7.70;;
21959;SDS011;11144;43.030;25.108;2022-09-01T05:00:08;18.90;;;8.18;;
21959;SDS011;11144;43.030;25.108;2022-09-01T05:01:53;13.63;;;8.05;;
21959;SDS011;11144;43.030;25.108;2022-09-01T05:03:28;16.40;;;8.48;;
21959;SDS011;11144;43.030;25.108;2022-09-01T05:05:08;12.88;;;7.22;;
21959;SDS011;11144;43.030;25.108;2022-09-01T05:06:45;17.73;;;7.85;;
21959;SDS011;11144;43.030;25.108;2022-09-01T05:08:22;14.48;;;7.78;;
21959;SDS011;11144;43.030;25.108;2022-09-01T05:10:03;15.18;;;7.57;;
21959;SDS011;11144;43.030;25.108;2022-09-01T05:12:06;11.15;;;7.05;;
21959;SDS011;11144;43.030;25.108;2022-09-01T05:13:49;11.30;;;6.82;;
21959;SDS011;11144;43.030;25.108;2022-09-01T05:15:28;13.85;;;7.60;;
21959;SDS011;11144;43.030;25.108;2022-09-01T05:17:02;8.68;;;5.70;;
21959;SDS011;11144;43.030;25.108;2022-09-01T05:18:41;9.95;;;5.88;;
21959;SDS011;11144;43.030;25.108;2022-09-01T05:20:19;12.43;;;6.85;;
21959;SDS011;11144;43.030;25.108;2022-09-01T05:21:53;10.02;;;6.07;;
21959;SDS011;11144;43.030;25.108;2022-09-01T05:23:28;8.18;;;5.72;;
21959;SDS011;11144;43.030;25.108;2022-09-01T05:25:05;9.68;;;6.18;;
21959;SDS011;11144;43.030;25.108;2022-09-01T05:26:48;9.00;;;5.03;;
21959;SDS011;11144;43.030;25.108;2022-09-01T05:28:21;9.20;;;5.35;;
21959;SDS011;11144;43.030;25.108;2022-09-01T05:29:55;8.73;;;5.30;;
21959;SDS011;11144;43.030;25.108;2022-09-01T05:31:32;8.32;;;5.70;;
21959;SDS011;11144;43.030;25.108;2022-09-01T05:33:08;10.30;;;6.45;;
21959;SDS011;11144;43.030;25.108;2022-09-01T05:34:42;8.18;;;5.93;;
21959;SDS011;11144;43.030;25.108;2022-09-01T05:36:18;9.02;;;5.93;;
21959;SDS011;11144;43.030;25.108;2022-09-01T05:37:55;8.23;;;5.45;;
21959;SDS011;11144;43.030;25.108;2022-09-01T05:39:30;10.55;;;5.50;;
21959;SDS011;11144;43.030;25.108;2022-09-01T05:41:04;7.75;;;4.93;;
21959;SDS011;11144;43.030;25.108;2022-09-01T05:42:39;6.90;;;4.97;;
21959;SDS011;11144;43.030;25.108;2022-09-01T05:44:13;9.32;;;4.88;;
21959;SDS011;11144;43.030;25.108;2022-09-01T05:45:47;10.45;;;6.30;;
21959;SDS011;11144;43.030;25.108;2022-09-01T05:47:38;13.43;;;7.30;;
21959;SDS011;11144;43.030;25.108;2022-09-01T05:49:14;9.95;;;5.78;;
21959;SDS011;11144;43.030;25.108;2022-09-01T05:50:52;9.70;;;6.45;;
21959;SDS011;11144;43.030;25.108;2022-09-01T05:52:30;9.73;;;6.18;;
21959;SDS011;11144;43.030;25.108;2022-09-01T05:54:05;9.65;;;5.57;;
21959;SDS011;11144;43.030;25.108;2022-09-01T05:55:40;10.73;;;6.07;;
21959;SDS011;11144;43.030;25.108;2022-09-01T05:57:17;9.48;;;5.93;;
21959;SDS011;11144;43.030;25.108;2022-09-01T05:59:06;7.40;;;5.32;;
21959;SDS011;11144;43.030;25.108;2022-09-01T06:01:03;7.70;;;5.05;;
21959;SDS011;11144;43.030;25.108;2022-09-01T06:02:37;8.45;;;5.53;;
21959;SDS011;11144;43.030;25.108;2022-09-01T06:04:13;8.68;;;5.13;;
21959;SDS011;11144;43.030;25.108;2022-09-01T06:05:47;8.75;;;5.35;;
21959;SDS011;11144;43.030;25.108;2022-09-01T06:07:23;10.75;;;6.55;;
21959;SDS011;11144;43.030;25.108;2022-09-01T06:09:01;10.52;;;6.35;;
21959;SDS011;11144;43.030;25.108;2022-09-01T06:10:35;8.18;;;5.82;;
21959;SDS011;11144;43.030;25.108;2022-09-01T06:12:11;9.80;;;5.72;;
21959;SDS011;11144;43.030;25.108;2022-09-01T06:13:51;9.13;;;6.40;;
21959;SDS011;11144;43.030;25.108;2022-09-01T06:15:27;11.23;;;6.68;;
21959;SDS011;11144;43.030;25.108;2022-09-01T06:17:02;9.38;;;7.38;;
21959;SDS011;11144;43.030;25.108;2022-09-01T06:18:37;10.10;;;7.30;;
21959;SDS011;11144;43.030;25.108;2022-09-01T06:20:11;13.35;;;8.50;;
21959;SDS011;11144;43.030;25.108;2022-09-01T06:21:49;10.77;;;8.05;;
21959;SDS011;11144;43.030;25.108;2022-09-01T06:23:23;13.20;;;7.60;;
21959;SDS011;11144;43.030;25.108;2022-09-01T06:24:56;11.77;;;7.78;;
21959;SDS011;11144;43.030;25.108;2022-09-01T06:26:39;11.18;;;7.25;;
21959;SDS011;11144;43.030;25.108;2022-09-01T06:28:13;10.32;;;7.22;;
21959;SDS011;11144;43.030;25.108;2022-09-01T06:29:49;11.63;;;7.55;;
21959;SDS011;11144;43.030;25.108;2022-09-01T06:31:25;9.40;;;6.10;;
21959;SDS011;11144;43.030;25.108;2022-09-01T06:33:10;6.88;;;5.45;;
21959;SDS011;11144;43.030;25.108;2022-09-01T06:34:50;8.73;;;5.47;;
21959;SDS011;11144;43.030;25.108;2022-09-01T06:36:23;7.68;;;6.05;;
21959;SDS011;11144;43.030;25.108;2022-09-01T06:37:57;7.70;;;5.43;;
21959;SDS011;11144;43.030;25.108;2022-09-01T06:39:58;8.77;;;5.20;;
21959;SDS011;11144;43.030;25.108;2022-09-01T06:41:33;7.50;;;5.07;;
21959;SDS011;11144;43.030;25.108;2022-09-01T06:43:14;9.15;;;6.28;;
21959;SDS011;11144;43.030;25.108;2022-09-01T06:44:54;6.88;;;5.05;;
21959;SDS011;11144;43.030;25.108;2022-09-01T06:46:30;6.88;;;5.13;;
21959;SDS011;11144;43.030;25.108;2022-09-01T06:48:07;8.48;;;4.50;;
21959;SDS011;11144;43.030;25.108;2022-09-01T06:49:45;6.65;;;5.55;;
21959;SDS011;11144;43.030;25.108;2022-09-01T06:51:22;7.72;;;5.47;;
21959;SDS011;11144;43.030;25.108;2022-09-01T06:52:59;6.97;;;5.38;;
21959;SDS011;11144;43.030;25.108;2022-09-01T06:55:03;12.60;;;6.68;;
21959;SDS011;11144;43.030;25.108;2022-09-01T06:56:39;6.80;;;5.10;;
21959;SDS011;11144;43.030;25.108;2022-09-01T06:58:22;9.00;;;5.72;;
21959;SDS011;11144;43.030;25.108;2022-09-01T06:59:58;8.00;;;5.80;;
21959;SDS011;11144;43.030;25.108;2022-09-01T07:01:38;8.25;;;6.15;;
21959;SDS011;11144;43.030;25.108;2022-09-01T07:03:12;9.85;;;5.55;;
21959;SDS011;11144;43.030;25.108;2022-09-01T07:05:12;11.05;;;5.72;;
21959;SDS011;11144;43.030;25.108;2022-09-01T07:07:10;7.78;;;5.28;;
21959;SDS011;11144;43.030;25.108;2022-09-01T07:09:22;7.85;;;5.85;;
21959;SDS011;11144;43.030;25.108;2022-09-01T07:11:32;8.93;;;5.93;;
21959;SDS011;11144;43.030;25.108;2022-09-01T07:13:27;8.30;;;5.82;;
21959;SDS011;11144;43.030;25.108;2022-09-01T07:15:06;6.38;;;5.60;;
21959;SDS011;11144;43.030;25.108;2022-09-01T07:17:01;7.68;;;5.47;;
21959;SDS011;11144;43.030;25.108;2022-09-01T07:18:56;9.27;;;5.93;;
21959;SDS011;11144;43.030;25.108;2022-09-01T07:20:33;10.95;;;6.22;;
21959;SDS011;11144;43.030;25.108;2022-09-01T07:22:30;8.80;;;6.18;;
21959;SDS011;11144;43.030;25.108;2022-09-01T07:24:23;8.93;;;6.18;;
21959;SDS011;11144;43.030;25.108;2022-09-01T07:26:34;9.77;;;6.68;;
21959;SDS011;11144;43.030;25.108;2022-09-01T07:28:18;9.95;;;5.65;;
21959;SDS011;11144;43.030;25.108;2022-09-01T07:29:55;10.00;;;7.05;;
21959;SDS011;11144;43.030;25.108;2022-09-01T07:31:31;10.00;;;6.28;;
21959;SDS011;11144;43.030;25.108;2022-09-01T07:33:30;6.38;;;4.40;;
21959;SDS011;11144;43.030;25.108;2022-09-01T07:35:24;7.60;;;5.15;;
21959;SDS011;11144;43.030;25.108;2022-09-01T07:36:58;7.88;;;4.97;;
21959;SDS011;11144;43.030;25.108;2022-09-01T07:38:54;5.75;;;4.10;;
21959;SDS011;11144;43.030;25.108;2022-09-01T07:41:01;10.27;;;4.78;;
21959;SDS011;11144;43.030;25.108;2022-09-01T07:43:15;10.82;;;4.97;;
21959;SDS011;11144;43.030;25.108;2022-09-01T07:45:19;6.75;;;4.60;;
21959;SDS011;11144;43.030;25.108;2022-09-01T07:47:02;6.00;;;3.83;;
21959;SDS011;11144;43.030;25.108;2022-09-01T07:49:00;6.00;;;4.10;;
21959;SDS011;11144;43.030;25.108;2022-09-01T07:50:55;6.13;;;4.40;;
21959;SDS011;11144;43.030;25.108;2022-09-01T07:52:49;6.68;;;3.88;;
21959;SDS011;11144;43.030;25.108;2022-09-01T07:54:22;5.45;;;3.60;;
21959;SDS011;11144;43.030;25.108;2022-09-01T07:55:57;7.45;;;4.32;;
21959;SDS011;11144;43.030;25.108;2022-09-01T07:57:32;4.90;;;3.50;;
21959;SDS011;11144;43.030;25.108;2022-09-01T07:59:07;3.97;;;3.58;;
21959;SDS011;11144;43.030;25.108;2022-09-01T08:00:55;5.65;;;3.35;;
21959;SDS011;11144;43.030;25.108;2022-09-01T08:02:32;4.07;;;3.33;;
21959;SDS011;11144;43.030;25.108;2022-09-01T08:04:07;4.90;;;3.33;;
21959;SDS011;11144;43.030;25.108;2022-09-01T08:05:44;5.15;;;2.92;;
21959;SDS011;11144;43.030;25.108;2022-09-01T08:07:21;4.50;;;3.08;;
21959;SDS011;11144;43.030;25.108;2022-09-01T08:08:56;4.18;;;3.13;;
21959;SDS011;11144;43.030;25.108;2022-09-01T08:10:37;5.57;;;3.13;;
21959;SDS011;11144;43.030;25.108;2022-09-01T08:12:11;4.38;;;3.00;;
21959;SDS011;11144;43.030;25.108;2022-09-01T08:13:52;4.15;;;3.55;;
21959;SDS011;11144;43.030;25.108;2022-09-01T08:15:26;6.30;;;3.25;;
21959;SDS011;11144;43.030;25.108;2022-09-01T08:17:20;4.97;;;3.40;;
21959;SDS011;11144;43.030;25.108;2022-09-01T08:19:17;4.10;;;3.50;;
21959;SDS011;11144;43.030;25.108;2022-09-01T08:21:17;4.38;;;3.15;;
21959;SDS011;11144;43.030;25.108;2022-09-01T08:23:04;5.45;;;3.13;;
21959;SDS011;11144;43.030;25.108;2022-09-01T08:24:40;4.15;;;3.15;;
21959;SDS011;11144;43.030;25.108;2022-09-01T08:26:14;4.32;;;2.80;;
21959;SDS011;11144;43.030;25.108;2022-09-01T08:27:49;4.20;;;3.28;;
21959;SDS011;11144;43.030;25.108;2022-09-01T08:29:30;4.82;;;2.88;;
21959;SDS011;11144;43.030;25.108;2022-09-01T08:31:07;4.97;;;3.10;;
21959;SDS011;11144;43.030;25.108;2022-09-01T08:32:42;4.93;;;3.35;;
21959;SDS011;11144;43.030;25.108;2022-09-01T08:34:17;4.05;;;2.88;;
21959;SDS011;11144;43.030;25.108;2022-09-01T08:35:51;3.50;;;2.65;;
21959;SDS011;11144;43.030;25.108;2022-09-01T08:37:26;9.05;;;3.08;;
21959;SDS011;11144;43.030;25.108;2022-09-01T08:39:00;4.80;;;3.47;;
21959;SDS011;11144;43.030;25.108;2022-09-01T08:40:35;3.80;;;3.33;;
21959;SDS011;11144;43.030;25.108;2022-09-01T08:42:11;5.40;;;2.83;;
21959;SDS011;11144;43.030;25.108;2022-09-01T08:43:58;4.80;;;2.90;;
21959;SDS011;11144;43.030;25.108;2022-09-01T08:45:40;4.72;;;2.95;;
21959;SDS011;11144;43.030;25.108;2022-09-01T08:47:19;3.72;;;2.72;;
21959;SDS011;11144;43.030;25.108;2022-09-01T08:49:14;3.45;;;2.65;;
21959;SDS011;11144;43.030;25.108;2022-09-01T08:51:25;6.13;;;3.03;;
21959;SDS011;11144;43.030;25.108;2022-09-01T08:53:07;4.45;;;2.92;;
21959;SDS011;11144;43.030;25.108;2022-09-01T08:54:49;3.53;;;2.65;;
21959;SDS011;11144;43.030;25.108;2022-09-01T08:56:26;4.20;;;2.75;;
21959;SDS011;11144;43.030;25.108;2022-09-01T08:58:00;4.28;;;2.90;;
21959;SDS011;11144;43.030;25.108;2022-09-01T09:00:09;3.15;;;2.70;;
21959;SDS011;11144;43.030;25.108;2022-09-01T09:01:45;2.35;;;2.15;;
21959;SDS011;11144;43.030;25.108;2022-09-01T09:03:31;3.63;;;2.38;;
21959;SDS011;11144;43.030;25.108;2022-09-01T09:05:20;3.28;;;2.60;;
21959;SDS011;11144;43.030;25.108;2022-09-01T09:07:01;4.75;;;3.20;;
21959;SDS011;11144;43.030;25.108;2022-09-01T09:08:50;6.05;;;3.08;;
21959;SDS011;11144;43.030;25.108;2022-09-01T09:10:25;4.18;;;2.38;;
21959;SDS011;11144;43.030;25.108;2022-09-01T09:12:06;5.38;;;2.70;;
21959;SDS011;11144;43.030;25.108;2022-09-01T09:14:03;2.85;;;2.35;;
21959;SDS011;11144;43.030;25.108;2022-09-01T09:15:43;9.52;;;3.10;;
21959;SDS011;11144;43.030;25.108;2022-09-01T09:17:24;5.93;;;2.83;;
21959;SDS011;11144;43.030;25.108;2022-09-01T09:19:02;3.55;;;2.47;;
21959;SDS011;11144;43.030;25.108;2022-09-01T09:20:41;8.40;;;2.67;;
21959;SDS011;11144;43.030;25.108;2022-09-01T09:22:18;5.13;;;2.53;;
21959;SDS011;11144;43.030;25.108;2022-09-01T09:23:53;3.88;;;2.58;;
21959;SDS011;11144;43.030;25.108;2022-09-01T09:25:30;3.20;;;2.67;;
21959;SDS011;11144;43.030;25.108;2022-09-01T09:27:04;3.13;;;2.70;;
21959;SDS011;11144;43.030;25.108;2022-09-01T09:28:41;3.08;;;2.30;;
21959;SDS011;11144;43.030;25.108;2022-09-01T09:30:18;5.82;;;3.45;;
21959;SDS011;11144;43.030;25.108;2022-09-01T09:32:03;3.78;;;2.92;;
21959;SDS011;11144;43.030;25.108;2022-09-01T09:33:59;4.03;;;2.78;;
21959;SDS011;11144;43.030;25.108;2022-09-01T09:35:34;4.32;;;3.10;;
21959;SDS011;11144;43.030;25.108;2022-09-01T09:37:18;4.07;;;3.05;;
21959;SDS011;11144;43.030;25.108;2022-09-01T09:40:58;4.47;;;3.03;;
21959;SDS011;11144;43.030;25.108;2022-09-01T09:43:00;6.10;;;2.75;;
21959;SDS011;11144;43.030;25.108;2022-09-01T09:44:39;5.90;;;2.17;;
21959;SDS011;11144;43.030;25.108;2022-09-01T09:46:22;4.22;;;2.20;;